Time;durP1;ratioP1;P1;durP2;ratioP2;P2;SDS_P1;SDS_P2;PMS_P1;PMS_P2;Temp;Humidity;BMP_temperature;BMP_pressure;BME280_temperature;BME280_humidity;BME280_pressure;Samples;Min_cycle;Max_cycle;Signal;HPM_P1;HPM_P2
2022/05/07 00:02:18;;;;;;;58.87;3.10;;;;;;;;;;5074924;28;20494;-77
2022/05/07 00:04:47;;;;;;;58.57;2.70;;;;;;;;;;5075027;28;20873;-77
2022/05/07 00:07:14;;;;;;;59.30;2.90;;;;;;;;;;5074101;28;20449;-76
2022/05/07 00:09:41;;;;;;;58.57;2.80;;;;;;;;;;5074183;28;20466;-77
2022/05/07 00:12:09;;;;;;;58.90;4.00;;;;;;;;;;5074704;28;20454;-77
2022/05/07 00:14:36;;;;;;;58.77;2.97;;;;;;;;;;5074468;28;20534;-77
2022/05/07 00:19:49;;;;;;;58.73;2.83;;;;;;;;;;5074526;28;20446;-77
2022/05/07 00:22:16;;;;;;;58.67;2.87;;;;;;;;;;5074421;28;20462;-76
2022/05/07 00:24:44;;;;;;;58.77;2.60;;;;;;;;;;5074553;28;20481;-77
2022/05/07 00:27:13;;;;;;;58.77;2.80;;;;;;;;;;5073835;28;20565;-77
2022/05/07 00:29:40;;;;;;;58.90;2.80;;;;;;;;;;5074657;28;20837;-77
2022/05/07 00:32:08;;;;;;;58.67;2.80;;;;;;;;;;5074437;28;20467;-78
2022/05/07 00:34:35;;;;;;;58.67;2.57;;;;;;;;;;5074118;28;20486;-78
2022/05/07 00:37:04;;;;;;;65.73;5.70;;;;;;;;;;5074166;28;20476;-77
2022/05/07 00:39:31;;;;;;;58.60;2.90;;;;;;;;;;5073411;28;20478;-77
2022/05/07 00:42:02;;;;;;;58.67;2.70;;;;;;;;;;5073491;28;20531;-77
2022/05/07 00:44:30;;;;;;;59.80;3.33;;;;;;;;;;5074258;28;20477;-77
2022/05/07 00:47:00;;;;;;;59.20;2.97;;;;;;;;;;5074277;28;20829;-77
2022/05/07 00:49:27;;;;;;;58.57;2.43;;;;;;;;;;5073237;28;20852;-77
2022/05/07 00:51:53;;;;;;;59.03;3.20;;;;;;;;;;5073993;28;20452;-76
2022/05/07 00:54:23;;;;;;;58.60;2.77;;;;;;;;;;5073688;28;20454;-77
2022/05/07 00:56:50;;;;;;;58.57;2.63;;;;;;;;;;5073795;28;20493;-77
2022/05/07 00:59:19;;;;;;;58.97;3.47;;;;;;;;;;5073118;28;20470;-76
2022/05/07 01:01:46;;;;;;;58.47;2.80;;;;;;;;;;5073891;28;20449;-76
2022/05/07 01:04:13;;;;;;;59.30;3.33;;;;;;;;;;5073601;28;20446;-77
2022/05/07 01:06:41;;;;;;;58.60;2.77;;;;;;;;;;5073614;28;20544;-78
2022/05/07 01:09:08;;;;;;;58.57;2.90;;;;;;;;;;5072973;28;20474;-77
2022/05/07 01:11:37;;;;;;;58.57;2.80;;;;;;;;;;5073770;28;20454;-77
2022/05/07 01:14:04;;;;;;;58.67;2.73;;;;;;;;;;5073423;28;20963;-77
2022/05/07 01:16:31;;;;;;;59.47;3.40;;;;;;;;;;5070582;28;20453;-77
2022/05/07 01:18:58;;;;;;;58.57;2.80;;;;;;;;;;5072970;28;20496;-77
2022/05/07 01:21:27;;;;;;;58.77;2.80;;;;;;;;;;5073458;28;20450;-77
2022/05/07 01:23:55;;;;;;;58.47;2.67;;;;;;;;;;5073584;28;20954;-78
2022/05/07 01:26:22;;;;;;;58.47;2.50;;;;;;;;;;5073225;28;20481;-76
2022/05/07 01:28:49;;;;;;;58.73;2.57;;;;;;;;;;5072636;28;20455;-77
2022/05/07 01:31:17;;;;;;;58.70;2.80;;;;;;;;;;5073448;28;20478;-77
2022/05/07 01:33:44;;;;;;;58.77;2.67;;;;;;;;;;5073558;28;20453;-77
2022/05/07 01:36:16;;;;;;;58.63;2.43;;;;;;;;;;5073403;28;20454;-77
2022/05/07 01:38:44;;;;;;;58.67;2.87;;;;;;;;;;5072302;28;20520;-77
2022/05/07 01:41:11;;;;;;;58.67;2.63;;;;;;;;;;5072806;28;20558;-77
2022/05/07 01:43:39;;;;;;;60.90;3.60;;;;;;;;;;5073022;28;20545;-77
2022/05/07 01:48:09;;;;;;;58.73;2.70;;;;;;;;;;5073114;28;20541;-77
2022/05/07 01:48:53;;;;;;;58.77;2.73;;;;;;;;;;5072023;28;20442;-76
2022/05/07 01:51:20;;;;;;;59.20;3.20;;;;;;;;;;5072795;28;20903;-77
2022/05/07 01:53:49;;;;;;;58.77;2.97;;;;;;;;;;5072534;28;20956;-75
2022/05/07 01:56:16;;;;;;;58.73;3.00;;;;;;;;;;5072879;28;20875;-76
2022/05/07 01:58:44;;;;;;;58.67;2.63;;;;;;;;;;5071810;28;20490;-76
2022/05/07 02:01:11;;;;;;;58.97;3.00;;;;;;;;;;5072683;28;20480;-76
2022/05/07 02:03:39;;;;;;;58.67;3.10;;;;;;;;;;5072611;28;20458;-76
2022/05/07 02:06:06;;;;;;;58.57;2.80;;;;;;;;;;5072368;28;20535;-77
2022/05/07 02:08:33;;;;;;;58.47;2.50;;;;;;;;;;5072074;28;20529;-75
2022/05/07 02:11:02;;;;;;;59.00;2.63;;;;;;;;;;5072662;28;20897;-77
2022/05/07 02:13:29;;;;;;;59.03;3.00;;;;;;;;;;5072444;28;20451;-76
2022/05/07 02:15:56;;;;;;;59.00;3.00;;;;;;;;;;5072355;28;20453;-77
2022/05/07 02:18:23;;;;;;;58.73;2.73;;;;;;;;;;5071588;28;20486;-76
2022/05/07 02:20:52;;;;;;;58.67;2.87;;;;;;;;;;5072069;28;20478;-77
2022/05/07 02:23:20;;;;;;;59.47;4.27;;;;;;;;;;5072324;28;20475;-75
2022/05/07 02:25:47;;;;;;;58.87;2.80;;;;;;;;;;5072294;28;20465;-77
2022/05/07 02:28:17;;;;;;;58.90;3.40;;;;;;;;;;5071482;28;20484;-76
2022/05/07 02:30:44;;;;;;;59.03;2.87;;;;;;;;;;5072423;28;20475;-76
2022/05/07 02:33:11;;;;;;;58.97;3.33;;;;;;;;;;5071987;28;20486;-77
2022/05/07 02:35:38;;;;;;;58.80;3.10;;;;;;;;;;5072077;28;20468;-76
2022/05/07 02:38:05;;;;;;;58.57;2.80;;;;;;;;;;5071308;28;20563;-76
2022/05/07 02:42:33;;;;;;;58.67;2.80;;;;;;;;;;5071898;28;21017;-76
2022/05/07 02:43:20;;;;;;;58.63;2.60;;;;;;;;;;5071860;28;20937;-76
2022/05/07 02:45:48;;;;;;;58.87;2.77;;;;;;;;;;5071894;28;20461;-76
2022/05/07 02:48:15;;;;;;;59.00;3.23;;;;;;;;;;5071390;28;20446;-76
2022/05/07 02:50:42;;;;;;;62.80;3.20;;;;;;;;;;5071760;28;21043;-77
2022/05/07 02:53:09;;;;;;;58.67;2.73;;;;;;;;;;5071738;28;20536;-77
2022/05/07 02:55:36;;;;;;;58.43;2.87;;;;;;;;;;5072246;28;20451;-76
2022/05/07 02:58:03;;;;;;;58.87;2.73;;;;;;;;;;5070971;28;20568;-76
2022/05/07 03:00:32;;;;;;;58.67;2.90;;;;;;;;;;5071949;28;20474;-77
2022/05/07 03:02:59;;;;;;;58.77;3.00;;;;;;;;;;5071957;28;21139;-76
2022/05/07 03:05:26;;;;;;;58.57;3.00;;;;;;;;;;5071471;28;20550;-77
2022/05/07 03:07:56;;;;;;;58.57;3.13;;;;;;;;;;5071008;28;20537;-77
2022/05/07 03:10:23;;;;;;;59.50;3.73;;;;;;;;;;5071693;28;20478;-76
2022/05/07 03:12:50;;;;;;;58.70;2.80;;;;;;;;;;5071568;28;20865;-76
2022/05/07 03:15:17;;;;;;;58.77;2.90;;;;;;;;;;5071820;28;20452;-76
2022/05/07 03:17:46;;;;;;;58.67;2.90;;;;;;;;;;5071114;28;20533;-76
2022/05/07 03:20:16;;;;;;;58.75;2.90;;;;;;;;;;5071507;28;20988;-77
2022/05/07 03:22:43;;;;;;;58.80;2.70;;;;;;;;;;5071414;28;20216;-77
2022/05/07 03:25:10;;;;;;;58.67;2.97;;;;;;;;;;5071590;28;20832;-77
2022/05/07 03:27:37;;;;;;;58.37;2.80;;;;;;;;;;5070905;28;20453;-76
2022/05/07 03:30:06;;;;;;;58.67;2.90;;;;;;;;;;5071706;28;20474;-76
2022/05/07 03:32:34;;;;;;;58.90;3.27;;;;;;;;;;5071580;28;20863;-76
2022/05/07 03:35:02;;;;;;;58.87;3.03;;;;;;;;;;5071668;28;20540;-76
2022/05/07 03:37:29;;;;;;;58.83;2.60;;;;;;;;;;5070799;28;20457;-76
2022/05/07 03:39:57;;;;;;;58.88;2.80;;;;;;;;;;5071135;28;20487;-77
2022/05/07 03:42:26;;;;;;;58.70;2.93;;;;;;;;;;5071537;28;20247;-76
2022/05/07 03:44:53;;;;;;;58.50;3.00;;;;;;;;;;5071465;28;20451;-77
2022/05/07 03:47:20;;;;;;;58.67;2.80;;;;;;;;;;5070801;28;20211;-76
2022/05/07 03:49:47;;;;;;;58.63;3.10;;;;;;;;;;5071694;28;20468;-76
2022/05/07 03:55:00;;;;;;;58.78;2.80;;;;;;;;;;5071377;28;20429;-76
2022/05/07 03:57:27;;;;;;;58.57;3.27;;;;;;;;;;5070632;28;20209;-76
2022/05/07 03:59:56;;;;;;;59.17;3.35;;;;;;;;;;5071181;28;20525;-76
2022/05/07 04:02:23;;;;;;;58.78;2.90;;;;;;;;;;5071122;28;20565;-76
2022/05/07 04:04:51;;;;;;;58.70;2.90;;;;;;;;;;5071046;28;20699;-76
2022/05/07 04:07:19;;;;;;;59.50;3.47;;;;;;;;;;5070563;28;20499;-76
2022/05/07 04:09:47;;;;;;;58.80;2.80;;;;;;;;;;5071108;28;20552;-76
2022/05/07 04:12:14;;;;;;;58.55;2.90;;;;;;;;;;5071134;28;20543;-76
2022/05/07 04:14:42;;;;;;;58.88;3.20;;;;;;;;;;5071297;28;20241;-76
2022/05/07 04:17:09;;;;;;;58.88;2.90;;;;;;;;;;5072616;28;20211;-77
2022/05/07 04:19:36;;;;;;;58.47;2.53;;;;;;;;;;5074342;28;20328;-76
2022/05/07 04:22:03;;;;;;;58.07;2.50;;;;;;;;;;5074806;28;20453;-76
2022/05/07 04:24:33;;;;;;;58.80;3.10;;;;;;;;;;5074460;28;20485;-76
2022/05/07 04:27:00;;;;;;;58.88;3.10;;;;;;;;;;5074410;28;20455;-76
2022/05/07 04:29:27;;;;;;;58.75;2.92;;;;;;;;;;5073860;28;20259;-75
2022/05/07 04:31:54;;;;;;;58.55;2.70;;;;;;;;;;5074293;28;20215;-76
2022/05/07 04:34:22;;;;;;;58.97;2.85;;;;;;;;;;5074524;28;20208;-76
2022/05/07 04:36:49;;;;;;;58.57;3.00;;;;;;;;;;5074428;28;20702;-76
2022/05/07 04:39:16;;;;;;;58.87;3.00;;;;;;;;;;5073486;28;20487;-76
2022/05/07 04:41:45;;;;;;;58.47;2.67;;;;;;;;;;5074278;28;20535;-76
2022/05/07 04:44:12;;;;;;;58.58;2.58;;;;;;;;;;5074135;28;20461;-76
2022/05/07 04:46:40;;;;;;;58.57;2.80;;;;;;;;;;5074006;28;20293;-77
2022/05/07 04:49:07;;;;;;;58.55;2.70;;;;;;;;;;5073534;28;20440;-77
2022/05/07 04:51:34;;;;;;;58.90;3.60;;;;;;;;;;5074196;28;20311;-76
2022/05/07 04:54:01;;;;;;;58.63;3.03;;;;;;;;;;5074055;28;20538;-76
2022/05/07 04:56:29;;;;;;;58.60;2.75;;;;;;;;;;5073984;28;20971;-77
2022/05/07 04:58:58;;;;;;;58.67;2.90;;;;;;;;;;5073171;28;20227;-76
2022/05/07 05:01:25;;;;;;;58.92;3.08;;;;;;;;;;5074090;28;20550;-76
2022/05/07 05:03:52;;;;;;;58.70;2.63;;;;;;;;;;5073942;28;20298;-76
2022/05/07 05:06:19;;;;;;;58.33;2.70;;;;;;;;;;5074026;28;20892;-76
2022/05/07 05:08:46;;;;;;;58.53;2.80;;;;;;;;;;5073292;28;20587;-76
2022/05/07 05:11:13;;;;;;;59.30;4.30;;;;;;;;;;5073262;28;20555;-76
2022/05/07 05:13:41;;;;;;;58.67;2.80;;;;;;;;;;5073549;28;20475;-77
2022/05/07 05:16:09;;;;;;;58.67;2.87;;;;;;;;;;5073782;28;20445;-77
2022/05/07 05:18:36;;;;;;;58.37;2.63;;;;;;;;;;5072744;28;20577;-76
2022/05/07 05:21:03;;;;;;;58.67;2.70;;;;;;;;;;5073535;28;20470;-77
2022/05/07 05:23:31;;;;;;;58.77;2.90;;;;;;;;;;5073878;28;20809;-76
2022/05/07 05:25:58;;;;;;;58.77;2.90;;;;;;;;;;5073300;28;20455;-77
2022/05/07 05:28:26;;;;;;;58.67;2.80;;;;;;;;;;5072361;28;20573;-77
2022/05/07 05:30:53;;;;;;;58.80;2.70;;;;;;;;;;5073549;28;20472;-77
2022/05/07 05:33:22;;;;;;;59.10;3.53;;;;;;;;;;5073399;28;20540;-76
2022/05/07 05:35:49;;;;;;;58.63;3.00;;;;;;;;;;5073197;28;20489;-76
2022/05/07 05:38:17;;;;;;;61.00;3.67;;;;;;;;;;5072237;28;20458;-76
2022/05/07 05:40:44;;;;;;;58.67;2.60;;;;;;;;;;5072890;28;21058;-75
2022/05/07 05:43:11;;;;;;;59.07;3.37;;;;;;;;;;5073234;28;20460;-76
2022/05/07 05:45:38;;;;;;;58.67;2.80;;;;;;;;;;5073310;28;20453;-77
2022/05/07 05:48:06;;;;;;;58.47;2.80;;;;;;;;;;5072217;28;20532;-76
2022/05/07 05:50:35;;;;;;;58.77;2.83;;;;;;;;;;5072960;28;20461;-76
2022/05/07 05:53:02;;;;;;;58.67;2.90;;;;;;;;;;5072780;28;20974;-77
2022/05/07 05:55:30;;;;;;;58.57;2.80;;;;;;;;;;5072934;28;20544;-76
2022/05/07 05:57:57;;;;;;;59.30;3.20;;;;;;;;;;5072310;28;20450;-76
2022/05/07 06:00:24;;;;;;;59.73;3.20;;;;;;;;;;5072506;28;20498;-77
2022/05/07 06:02:52;;;;;;;58.37;2.70;;;;;;;;;;5072657;28;20896;-76
2022/05/07 06:05:19;;;;;;;58.70;3.30;;;;;;;;;;5072624;28;20454;-76
2022/05/07 06:07:48;;;;;;;58.67;2.80;;;;;;;;;;5071843;28;20454;-77
2022/05/07 06:10:15;;;;;;;58.37;2.90;;;;;;;;;;5072797;28;20553;-76
2022/05/07 06:12:42;;;;;;;58.43;2.57;;;;;;;;;;5072618;28;20478;-76
2022/05/07 06:15:10;;;;;;;58.40;2.50;;;;;;;;;;5072536;28;20533;-76
2022/05/07 06:17:37;;;;;;;59.00;3.20;;;;;;;;;;5071569;28;20462;-76
2022/05/07 06:20:05;;;;;;;58.87;3.20;;;;;;;;;;5072320;28;20490;-77
2022/05/07 06:22:32;;;;;;;58.80;3.00;;;;;;;;;;5072170;28;20551;-76
2022/05/07 06:27:46;;;;;;;58.80;2.90;;;;;;;;;;5070445;28;20430;-77
2022/05/07 06:30:13;;;;;;;58.63;2.90;;;;;;;;;;5071863;28;20550;-78
2022/05/07 06:32:41;;;;;;;58.90;3.20;;;;;;;;;;5072077;28;20457;-77
2022/05/07 06:35:09;;;;;;;59.20;3.43;;;;;;;;;;5072192;28;20821;-77
2022/05/07 06:37:37;;;;;;;58.93;2.70;;;;;;;;;;5071588;28;20487;-77
2022/05/07 06:40:06;;;;;;;58.70;3.00;;;;;;;;;;5071166;28;20494;-77
2022/05/07 06:42:34;;;;;;;58.80;2.90;;;;;;;;;;5072187;28;20455;-78
2022/05/07 06:45:01;;;;;;;58.97;3.20;;;;;;;;;;5071989;28;20546;-77
2022/05/07 06:47:28;;;;;;;58.57;2.80;;;;;;;;;;5071148;28;20975;-77
2022/05/07 06:49:55;;;;;;;59.37;3.03;;;;;;;;;;5071835;28;20559;-78
2022/05/07 06:52:22;;;;;;;58.33;2.50;;;;;;;;;;5071971;28;20453;-77
2022/05/07 06:54:49;;;;;;;58.47;2.80;;;;;;;;;;5071977;28;20535;-77
2022/05/07 06:57:18;;;;;;;58.27;2.70;;;;;;;;;;5071278;28;20893;-77
2022/05/07 06:59:45;;;;;;;58.37;3.20;;;;;;;;;;5071627;28;20525;-77
2022/05/07 07:02:13;;;;;;;58.67;3.50;;;;;;;;;;5072066;28;20455;-77
2022/05/07 07:04:40;;;;;;;58.57;3.40;;;;;;;;;;5071790;28;20530;-77
2022/05/07 07:07:08;;;;;;;58.60;3.30;;;;;;;;;;5071607;28;20447;-77
2022/05/07 07:09:35;;;;;;;58.43;3.00;;;;;;;;;;5071487;28;20473;-77
2022/05/07 07:12:02;;;;;;;58.40;3.00;;;;;;;;;;5071687;28;20451;-77
2022/05/07 07:14:30;;;;;;;58.37;2.67;;;;;;;;;;5071468;28;20449;-77
2022/05/07 07:16:58;;;;;;;58.50;2.93;;;;;;;;;;5071572;28;20490;-77
2022/05/07 07:19:25;;;;;;;58.37;2.97;;;;;;;;;;5071029;28;20573;-77
2022/05/07 07:21:53;;;;;;;59.97;3.40;;;;;;;;;;5071670;28;20529;-78
2022/05/07 07:24:21;;;;;;;58.50;3.20;;;;;;;;;;5071590;28;20838;-79
2022/05/07 07:26:48;;;;;;;58.77;3.07;;;;;;;;;;5071515;28;20457;-77
2022/05/07 07:29:16;;;;;;;58.60;3.03;;;;;;;;;;5070764;28;20447;-78
2022/05/07 07:31:44;;;;;;;58.20;2.70;;;;;;;;;;5071706;28;20451;-77
2022/05/07 07:34:11;;;;;;;58.97;3.13;;;;;;;;;;5071498;28;20482;-77
2022/05/07 07:36:38;;;;;;;59.60;3.50;;;;;;;;;;5071445;28;20456;-78
2022/05/07 07:39:07;;;;;;;58.40;3.13;;;;;;;;;;5070526;28;20544;-78
2022/05/07 07:41:35;;;;;;;58.43;2.60;;;;;;;;;;5071188;28;20517;-78
2022/05/07 07:44:02;;;;;;;58.70;3.00;;;;;;;;;;5071596;28;20452;-77
2022/05/07 07:49:15;;;;;;;59.00;4.73;;;;;;;;;;5070643;28;20906;-77
2022/05/07 07:51:42;;;;;;;63.17;4.10;;;;;;;;;;5074146;28;20542;-78
2022/05/07 07:54:09;;;;;;;58.60;3.10;;;;;;;;;;5074846;28;20446;-78
2022/05/07 07:59:40;;;;;;;58.47;3.03;;;;;;;;;;5071686;28;20851;-78
2022/05/07 08:02:08;;;;;;;60.60;3.73;;;;;;;;;;5074210;28;20478;-78
2022/05/07 08:04:36;;;;;;;58.40;2.60;;;;;;;;;;5074139;28;20452;-78
2022/05/07 08:12:33;;;;;;;59.77;4.27;;;;;;;;;;5074875;28;20429;-78
2022/05/07 08:15:00;;;;;;;58.27;2.50;;;;;;;;;;5074572;28;20458;-78
2022/05/07 08:17:28;;;;;;;58.90;3.63;;;;;;;;;;5074206;28;20845;-78
2022/05/07 08:19:57;;;;;;;58.63;3.37;;;;;;;;;;5074683;28;20829;-78
2022/05/07 08:22:24;;;;;;;58.77;3.90;;;;;;;;;;5079011;28;20480;-80
2022/05/07 08:24:51;;;;;;;60.13;3.90;;;;;;;;;;5076025;28;20446;-79
2022/05/07 08:27:18;;;;;;;58.13;2.70;;;;;;;;;;5073781;28;20491;-79
2022/05/07 08:29:45;;;;;;;59.30;3.97;;;;;;;;;;5074221;28;20503;-79
2022/05/07 08:32:12;;;;;;;59.83;4.40;;;;;;;;;;5074856;28;20538;-79
2022/05/07 08:34:41;;;;;;;59.00;4.10;;;;;;;;;;5074533;28;20530;-79
2022/05/07 08:37:10;;;;;;;58.57;3.53;;;;;;;;;;5074216;28;20522;-79
2022/05/07 08:39:37;;;;;;;59.67;3.83;;;;;;;;;;5074349;28;20494;-78
2022/05/07 08:42:04;;;;;;;59.07;3.70;;;;;;;;;;5074298;28;20762;-79
2022/05/07 08:44:33;;;;;;;60.20;3.93;;;;;;;;;;5074429;28;20496;-78
2022/05/07 08:47:01;;;;;;;59.63;3.90;;;;;;;;;;5074506;28;20830;-79
2022/05/07 08:49:28;;;;;;;59.97;5.50;;;;;;;;;;5073637;28;21073;-78
2022/05/07 08:51:56;;;;;;;59.80;4.77;;;;;;;;;;5074185;28;20454;-78
2022/05/07 08:54:25;;;;;;;59.57;4.27;;;;;;;;;;5074214;28;20497;-79
2022/05/07 08:56:52;;;;;;;60.13;3.63;;;;;;;;;;5073832;28;20542;-78
2022/05/07 08:59:19;;;;;;;59.50;4.10;;;;;;;;;;5073357;28;20880;-79
2022/05/07 09:01:46;;;;;;;61.37;3.87;;;;;;;;;;5073264;28;20546;-79
2022/05/07 09:04:13;;;;;;;59.60;4.33;;;;;;;;;;5074037;28;20431;-79
2022/05/07 09:06:41;;;;;;;58.60;3.23;;;;;;;;;;5074015;28;20455;-78
2022/05/07 09:09:08;;;;;;;61.50;4.80;;;;;;;;;;5072862;28;20447;-79
2022/05/07 09:11:43;;;;;;;59.30;4.10;;;;;;;;;;5074014;28;20819;-79
2022/05/07 09:14:10;;;;;;;59.83;3.90;;;;;;;;;;5074063;28;20442;-79
2022/05/07 09:16:39;;;;;;;58.23;3.47;;;;;;;;;;5073896;28;20454;-79
2022/05/07 09:19:07;;;;;;;58.33;3.00;;;;;;;;;;5072806;28;20538;-78
2022/05/07 09:21:35;;;;;;;58.77;2.90;;;;;;;;;;5073467;28;20519;-79
2022/05/07 09:24:03;;;;;;;63.70;4.60;;;;;;;;;;5073302;28;20452;-78
2022/05/07 09:26:30;;;;;;;59.07;3.37;;;;;;;;;;5073741;28;20525;-79
2022/05/07 09:29:00;;;;;;;60.67;3.87;;;;;;;;;;5072921;28;20540;-79
2022/05/07 09:31:28;;;;;;;59.13;3.40;;;;;;;;;;5073347;28;20453;-80
2022/05/07 09:33:55;;;;;;;62.97;4.23;;;;;;;;;;5073494;28;20523;-78
2022/05/07 09:36:23;;;;;;;58.50;2.77;;;;;;;;;;5073130;28;20449;-78
2022/05/07 09:38:59;;;;;;;58.47;3.03;;;;;;;;;;5072575;28;20464;-79
2022/05/07 09:41:26;;;;;;;58.67;3.17;;;;;;;;;;5073324;28;20910;-79
2022/05/07 09:43:54;;;;;;;59.17;3.67;;;;;;;;;;5072924;28;20447;-79
2022/05/07 09:46:23;;;;;;;59.40;3.70;;;;;;;;;;5073148;28;20545;-79
2022/05/07 09:48:52;;;;;;;60.10;3.93;;;;;;;;;;5072191;28;20449;-80
2022/05/07 09:51:21;;;;;;;58.60;3.07;;;;;;;;;;5073060;28;20927;-79
2022/05/07 09:59:18;;;;;;;58.80;3.23;;;;;;;;;;5072013;28;20465;-80
2022/05/07 10:01:51;;;;;;;57.97;3.30;;;;;;;;;;5072825;28;20519;-79
2022/05/07 10:04:33;;;;;;;59.53;3.97;;;;;;;;;;5072787;28;20456;-79
2022/05/07 10:07:06;;;;;;;59.30;3.60;;;;;;;;;;5070661;28;20459;-79
2022/05/07 10:09:42;;;;;;;58.60;3.20;;;;;;;;;;5071788;28;20559;-77
2022/05/07 10:12:09;;;;;;;58.50;3.60;;;;;;;;;;5072503;28;21018;-77
2022/05/07 10:14:37;;;;;;;59.37;3.77;;;;;;;;;;5072450;28;20845;-78
2022/05/07 10:17:11;;;;;;;58.57;3.13;;;;;;;;;;5072397;28;20535;-77
2022/05/07 10:19:40;;;;;;;58.60;3.03;;;;;;;;;;5072420;28;20516;-79
2022/05/07 10:22:21;;;;;;;58.67;3.17;;;;;;;;;;5073755;28;20501;-80
2022/05/07 10:24:48;;;;;;;59.87;3.93;;;;;;;;;;5077305;28;20505;-79
2022/05/07 10:27:22;;;;;;;59.17;3.07;;;;;;;;;;5072464;28;20473;-79
2022/05/07 10:29:50;;;;;;;58.90;3.57;;;;;;;;;;5073090;28;20469;-77
2022/05/07 10:32:21;;;;;;;58.67;3.00;;;;;;;;;;5072130;28;20513;-78
2022/05/07 10:34:53;;;;;;;59.10;3.60;;;;;;;;;;5072045;28;20942;-78
2022/05/07 10:37:20;;;;;;;60.27;3.17;;;;;;;;;;5071955;28;20444;-79
2022/05/07 10:39:52;;;;;;;58.63;3.33;;;;;;;;;;5079789;28;20570;-81
2022/05/07 10:42:21;;;;;;;58.83;3.27;;;;;;;;;;5072876;28;20440;-79
2022/05/07 10:44:49;;;;;;;58.87;3.20;;;;;;;;;;5073463;28;20492;-79
2022/05/07 10:47:17;;;;;;;59.40;3.20;;;;;;;;;;5072120;28;20463;-77
2022/05/07 10:49:56;;;;;;;58.40;2.87;;;;;;;;;;5071819;28;20487;-78
2022/05/07 10:52:30;;;;;;;59.03;3.27;;;;;;;;;;5071920;28;20949;-78
2022/05/07 10:55:21;;;;;;;58.07;2.90;;;;;;;;;;5071841;28;20450;-78
2022/05/07 10:57:49;;;;;;;58.07;2.80;;;;;;;;;;5056104;28;20551;-78
2022/05/07 11:00:17;;;;;;;58.37;2.83;;;;;;;;;;5071649;28;20573;-79
2022/05/07 11:02:45;;;;;;;57.90;2.30;;;;;;;;;;5071814;28;20453;-78
2022/05/07 11:05:13;;;;;;;58.70;3.07;;;;;;;;;;5072154;28;20459;-76
2022/05/07 11:07:41;;;;;;;57.90;2.50;;;;;;;;;;5072763;28;20438;-77
2022/05/07 11:10:09;;;;;;;58.20;2.27;;;;;;;;;;5071630;28;20478;-77
2022/05/07 11:12:36;;;;;;;61.80;2.78;;;;;;;;;;5070668;28;20446;-77
2022/05/07 11:15:04;;;;;;;58.00;2.53;;;;;;;;;;5071568;28;20207;-76
2022/05/07 11:17:32;;;;;;;62.10;2.92;;;;;;;;;;5070296;28;20803;-76
2022/05/07 11:20:00;;;;;;;57.63;2.60;;;;;;;;;;5072652;28;20228;-76
2022/05/07 11:22:31;;;;;;;58.53;2.57;;;;;;;;;;5072074;28;20448;-75
2022/05/07 11:24:58;;;;;;;58.93;3.03;;;;;;;;;;5072758;28;20504;-76
2022/05/07 11:27:29;;;;;;;57.60;2.20;;;;;;;;;;5075213;28;20541;-75
2022/05/07 11:29:57;;;;;;;61.90;2.55;;;;;;;;;;5074296;28;20963;-78
2022/05/07 11:32:24;;;;;;;58.00;2.30;;;;;;;;;;5075418;28;20673;-78
2022/05/07 11:34:57;;;;;;;57.40;2.37;;;;;;;;;;5075445;28;20512;-78
2022/05/07 11:37:25;;;;;;;57.30;2.10;;;;;;;;;;5074859;28;20963;-78
2022/05/07 11:39:54;;;;;;;59.70;2.77;;;;;;;;;;5075182;28;20561;-77
2022/05/07 11:42:31;;;;;;;63.80;2.83;;;;;;;;;;5075420;28;20510;-76
2022/05/07 11:47:54;;;;;;;57.50;2.03;;;;;;;;;;5075316;28;20418;-78
2022/05/07 11:50:22;;;;;;;59.73;2.70;;;;;;;;;;5075258;28;20473;-77
2022/05/07 11:52:49;;;;;;;57.83;2.27;;;;;;;;;;5075321;28;20451;-77
2022/05/07 11:55:18;;;;;;;58.07;2.40;;;;;;;;;;5075553;28;20487;-77
2022/05/07 11:57:47;;;;;;;72.23;2.73;;;;;;;;;;5075520;28;20515;-78
2022/05/07 12:00:19;;;;;;;58.97;2.50;;;;;;;;;;5075553;28;20473;-78
2022/05/07 12:02:50;;;;;;;58.57;2.80;;;;;;;;;;5075466;28;20449;-77
2022/05/07 12:05:17;;;;;;;59.67;2.63;;;;;;;;;;5075023;28;20536;-78
2022/05/07 12:07:46;;;;;;;58.40;2.70;;;;;;;;;;5074545;28;20534;-78
2022/05/07 12:10:14;;;;;;;57.90;2.30;;;;;;;;;;5075440;28;20913;-78
2022/05/07 12:12:42;;;;;;;60.23;2.70;;;;;;;;;;5074814;28;20974;-78
2022/05/07 12:15:10;;;;;;;57.87;2.60;;;;;;;;;;5075130;28;20449;-77
2022/05/07 12:17:52;;;;;;;58.00;2.73;;;;;;;;;;5074161;28;20486;-77
2022/05/07 12:20:19;;;;;;;61.90;2.23;;;;;;;;;;5074595;28;20521;-77
2022/05/07 12:31:04;;;;;;;58.27;2.50;;;;;;;;;;5074521;28;20459;-77
2022/05/07 12:33:32;;;;;;;57.80;2.50;;;;;;;;;;5080018;28;20454;-77
2022/05/07 12:36:00;;;;;;;58.63;3.07;;;;;;;;;;5074466;28;20447;-77
2022/05/07 12:38:27;;;;;;;58.30;2.40;;;;;;;;;;5072431;28;20466;-77
2022/05/07 12:40:54;;;;;;;57.67;1.97;;;;;;;;;;5074190;28;20521;-77
2022/05/07 12:43:23;;;;;;;57.77;2.33;;;;;;;;;;5074193;28;20451;-78
2022/05/07 12:45:50;;;;;;;58.60;2.30;;;;;;;;;;5074007;28;20447;-78
2022/05/07 12:48:18;;;;;;;59.33;2.17;;;;;;;;;;5073363;28;20487;-78
2022/05/07 12:50:46;;;;;;;58.30;2.60;;;;;;;;;;5074167;28;20462;-78
2022/05/07 12:53:14;;;;;;;58.20;2.30;;;;;;;;;;5074094;28;20481;-78
2022/05/07 12:55:42;;;;;;;58.60;2.80;;;;;;;;;;5073908;28;20451;-78
2022/05/07 12:58:11;;;;;;;57.73;2.10;;;;;;;;;;5073327;28;20496;-78
2022/05/07 13:00:40;;;;;;;58.17;2.50;;;;;;;;;;5073850;28;20839;-78
2022/05/07 13:03:07;;;;;;;57.93;2.30;;;;;;;;;;5074880;28;20450;-76
2022/05/07 13:05:34;;;;;;;57.77;2.30;;;;;;;;;;5074130;28;20442;-77
2022/05/07 13:08:03;;;;;;;57.80;2.47;;;;;;;;;;5073099;28;20453;-77
2022/05/07 13:10:30;;;;;;;58.50;3.03;;;;;;;;;;5073998;28;20483;-78
2022/05/07 13:12:58;;;;;;;58.20;2.30;;;;;;;;;;5073423;28;20956;-77
2022/05/07 13:15:26;;;;;;;57.50;2.00;;;;;;;;;;5073858;28;20448;-77
2022/05/07 13:17:54;;;;;;;57.87;2.40;;;;;;;;;;5073162;28;20448;-77
2022/05/07 13:20:22;;;;;;;57.30;2.10;;;;;;;;;;5073529;28;20550;-77
2022/05/07 13:22:49;;;;;;;57.43;1.87;;;;;;;;;;5073362;28;20483;-77
2022/05/07 13:25:16;;;;;;;57.60;2.17;;;;;;;;;;5073585;28;20452;-77
2022/05/07 13:27:44;;;;;;;57.53;2.43;;;;;;;;;;5072523;28;20469;-76
2022/05/07 13:30:11;;;;;;;57.53;2.30;;;;;;;;;;5073143;28;20468;-77
2022/05/07 13:32:38;;;;;;;57.23;2.37;;;;;;;;;;5073321;28;20444;-75
2022/05/07 13:35:08;;;;;;;57.23;2.30;;;;;;;;;;5073299;28;20451;-75
2022/05/07 13:37:35;;;;;;;58.83;2.60;;;;;;;;;;5072466;28;20443;-77
2022/05/07 13:40:03;;;;;;;57.77;2.60;;;;;;;;;;5072850;28;20483;-77
2022/05/07 13:42:30;;;;;;;57.63;2.40;;;;;;;;;;5073091;28;20522;-77
2022/05/07 13:44:57;;;;;;;57.20;2.10;;;;;;;;;;5073267;28;20876;-77
2022/05/07 13:47:24;;;;;;;57.87;2.30;;;;;;;;;;5072201;28;20443;-77
2022/05/07 13:49:51;;;;;;;58.40;2.37;;;;;;;;;;5072412;28;20559;-77
2022/05/07 13:52:20;;;;;;;58.03;2.33;;;;;;;;;;5072742;28;20439;-77
2022/05/07 13:54:47;;;;;;;58.93;2.30;;;;;;;;;;5072818;28;20870;-76
2022/05/07 13:57:14;;;;;;;58.00;2.50;;;;;;;;;;5072171;28;20493;-77
2022/05/07 13:59:41;;;;;;;58.23;2.50;;;;;;;;;;5072780;28;20509;-78
2022/05/07 14:02:08;;;;;;;58.40;3.00;;;;;;;;;;5072675;28;20487;-77
2022/05/07 14:04:36;;;;;;;57.70;2.07;;;;;;;;;;5072563;28;20450;-77
2022/05/07 14:07:03;;;;;;;57.80;2.03;;;;;;;;;;5072472;28;21003;-77
2022/05/07 14:09:31;;;;;;;60.63;2.80;;;;;;;;;;5071997;28;20497;-77
2022/05/07 14:12:00;;;;;;;57.67;2.40;;;;;;;;;;5072444;28;21014;-77
2022/05/07 14:14:27;;;;;;;58.10;2.80;;;;;;;;;;5072577;28;20456;-77
2022/05/07 14:16:54;;;;;;;57.97;2.50;;;;;;;;;;5072455;28;20457;-76
2022/05/07 14:19:22;;;;;;;58.10;2.83;;;;;;;;;;5071632;28;20475;-77
2022/05/07 14:21:49;;;;;;;57.90;2.23;;;;;;;;;;5072134;28;21085;-78
2022/05/07 14:24:16;;;;;;;57.77;2.37;;;;;;;;;;5072162;28;20538;-76
2022/05/07 14:26:44;;;;;;;57.67;2.33;;;;;;;;;;5072323;28;20544;-76
2022/05/07 14:29:11;;;;;;;58.10;2.40;;;;;;;;;;5071471;28;20449;-76
2022/05/07 14:31:39;;;;;;;58.07;2.70;;;;;;;;;;5072188;28;20480;-75
2022/05/07 14:34:06;;;;;;;58.90;3.20;;;;;;;;;;5072316;28;20918;-78
2022/05/07 14:36:33;;;;;;;61.00;2.70;;;;;;;;;;5072069;28;20453;-77
2022/05/07 14:39:00;;;;;;;57.83;2.50;;;;;;;;;;5071265;28;20466;-77
2022/05/07 14:41:27;;;;;;;58.70;2.80;;;;;;;;;;5069461;28;20586;-79
2022/05/07 14:43:56;;;;;;;58.07;2.43;;;;;;;;;;5071871;28;20475;-74
2022/05/07 14:46:23;;;;;;;58.67;2.67;;;;;;;;;;5075602;28;20456;-78
2022/05/07 14:48:51;;;;;;;58.30;2.87;;;;;;;;;;5070852;28;20449;-75
2022/05/07 14:51:18;;;;;;;58.60;3.03;;;;;;;;;;5072189;28;20473;-76
2022/05/07 14:53:45;;;;;;;58.10;3.00;;;;;;;;;;5070957;28;20457;-77
2022/05/07 14:56:13;;;;;;;58.17;2.80;;;;;;;;;;5068675;28;20460;-78
2022/05/07 14:58:41;;;;;;;57.93;2.53;;;;;;;;;;5071137;28;20458;-78
2022/05/07 15:01:10;;;;;;;60.17;2.87;;;;;;;;;;5070936;28;20477;-78
2022/05/07 15:03:37;;;;;;;57.80;2.40;;;;;;;;;;5071481;28;20455;-75
2022/05/07 15:06:04;;;;;;;59.47;2.67;;;;;;;;;;5071735;28;20481;-75
2022/05/07 15:11:19;;;;;;;58.10;2.80;;;;;;;;;;5071403;28;20435;-75
2022/05/07 15:13:47;;;;;;;58.40;2.80;;;;;;;;;;5071455;28;20451;-75
2022/05/07 15:16:16;;;;;;;58.70;2.97;;;;;;;;;;5072001;28;20538;-77